sensor_id;sensor_type;location;lat;lon;timestamp;P1;durP1;ratioP1;P2;durP2;ratioP2
12725;SDS011;6427;49.754;6.106;2023-06-14T00:00:56;5.33;;;4.50;;
12725;SDS011;6427;49.754;6.106;2023-06-14T00:03:24;6.00;;;4.73;;
12725;SDS011;6427;49.754;6.106;2023-06-14T00:05:51;5.47;;;4.80;;
12725;SDS011;6427;49.754;6.106;2023-06-14T00:08:20;6.83;;;4.97;;
12725;SDS011;6427;49.754;6.106;2023-06-14T00:10:47;6.93;;;4.53;;
12725;SDS011;6427;49.754;6.106;2023-06-14T00:13:15;6.85;;;5.22;;
12725;SDS011;6427;49.754;6.106;2023-06-14T00:15:44;7.67;;;5.20;;
12725;SDS011;6427;49.754;6.106;2023-06-14T00:18:11;6.93;;;5.20;;
12725;SDS011;6427;49.754;6.106;2023-06-14T00:20:39;5.70;;;5.10;;
12725;SDS011;6427;49.754;6.106;2023-06-14T00:23:07;7.13;;;5.63;;
12725;SDS011;6427;49.754;6.106;2023-06-14T00:25:34;7.60;;;5.13;;
12725;SDS011;6427;49.754;6.106;2023-06-14T00:28:02;6.47;;;5.73;;
12725;SDS011;6427;49.754;6.106;2023-06-14T00:30:29;8.37;;;5.93;;
12725;SDS011;6427;49.754;6.106;2023-06-14T00:32:57;5.67;;;4.93;;
12725;SDS011;6427;49.754;6.106;2023-06-14T00:35:25;7.13;;;4.87;;
12725;SDS011;6427;49.754;6.106;2023-06-14T00:37:52;6.53;;;5.90;;
12725;SDS011;6427;49.754;6.106;2023-06-14T00:40:20;8.00;;;6.10;;
12725;SDS011;6427;49.754;6.106;2023-06-14T00:42:48;8.48;;;5.93;;
12725;SDS011;6427;49.754;6.106;2023-06-14T00:45:16;6.50;;;5.90;;
12725;SDS011;6427;49.754;6.106;2023-06-14T00:47:44;7.57;;;5.50;;
12725;SDS011;6427;49.754;6.106;2023-06-14T00:50:13;6.17;;;5.30;;
12725;SDS011;6427;49.754;6.106;2023-06-14T00:52:41;6.13;;;5.27;;
12725;SDS011;6427;49.754;6.106;2023-06-14T00:55:09;8.70;;;5.60;;
12725;SDS011;6427;49.754;6.106;2023-06-14T00:57:36;8.40;;;5.67;;
12725;SDS011;6427;49.754;6.106;2023-06-14T01:00:04;7.40;;;5.50;;
12725;SDS011;6427;49.754;6.106;2023-06-14T01:02:32;7.65;;;6.05;;
12725;SDS011;6427;49.754;6.106;2023-06-14T01:05:00;9.40;;;6.23;;
12725;SDS011;6427;49.754;6.106;2023-06-14T01:15:41;9.88;;;6.47;;
12725;SDS011;6427;49.754;6.106;2023-06-14T01:18:09;7.20;;;6.00;;
12725;SDS011;6427;49.754;6.106;2023-06-14T01:20:36;9.63;;;6.07;;
12725;SDS011;6427;49.754;6.106;2023-06-14T01:23:04;8.63;;;6.40;;
12725;SDS011;6427;49.754;6.106;2023-06-14T01:25:31;11.57;;;6.20;;
12725;SDS011;6427;49.754;6.106;2023-06-14T01:27:59;7.53;;;5.93;;
12725;SDS011;6427;49.754;6.106;2023-06-14T01:30:26;10.53;;;6.50;;
12725;SDS011;6427;49.754;6.106;2023-06-14T01:32:55;7.27;;;6.23;;
12725;SDS011;6427;49.754;6.106;2023-06-14T01:35:23;8.88;;;6.97;;
12725;SDS011;6427;49.754;6.106;2023-06-14T01:37:51;8.73;;;6.67;;
12725;SDS011;6427;49.754;6.106;2023-06-14T01:40:18;8.37;;;6.93;;
12725;SDS011;6427;49.754;6.106;2023-06-14T01:42:46;8.07;;;6.50;;
12725;SDS011;6427;49.754;6.106;2023-06-14T01:45:14;10.40;;;6.70;;
12725;SDS011;6427;49.754;6.106;2023-06-14T01:47:41;9.27;;;7.47;;
12725;SDS011;6427;49.754;6.106;2023-06-14T01:50:09;8.87;;;6.70;;
12725;SDS011;6427;49.754;6.106;2023-06-14T01:52:37;8.80;;;7.32;;
12725;SDS011;6427;49.754;6.106;2023-06-14T01:55:05;9.27;;;7.13;;
12725;SDS011;6427;49.754;6.106;2023-06-14T01:57:32;8.33;;;6.93;;
12725;SDS011;6427;49.754;6.106;2023-06-14T01:59:59;9.93;;;7.27;;
12725;SDS011;6427;49.754;6.106;2023-06-14T02:02:27;11.43;;;7.55;;
12725;SDS011;6427;49.754;6.106;2023-06-14T02:04:55;11.07;;;7.80;;
12725;SDS011;6427;49.754;6.106;2023-06-14T02:07:23;7.43;;;6.20;;
12725;SDS011;6427;49.754;6.106;2023-06-14T02:09:51;8.97;;;6.40;;
12725;SDS011;6427;49.754;6.106;2023-06-14T02:12:19;11.13;;;7.47;;
12725;SDS011;6427;49.754;6.106;2023-06-14T02:14:46;9.70;;;6.63;;
12725;SDS011;6427;49.754;6.106;2023-06-14T02:17:14;8.77;;;7.75;;
12725;SDS011;6427;49.754;6.106;2023-06-14T02:19:42;8.77;;;6.93;;
12725;SDS011;6427;49.754;6.106;2023-06-14T02:22:09;8.10;;;7.03;;
12725;SDS011;6427;49.754;6.106;2023-06-14T02:24:37;11.47;;;7.27;;
12725;SDS011;6427;49.754;6.106;2023-06-14T02:27:04;9.33;;;7.40;;
12725;SDS011;6427;49.754;6.106;2023-06-14T02:29:32;8.47;;;6.90;;
12725;SDS011;6427;49.754;6.106;2023-06-14T02:32:00;10.02;;;7.82;;
12725;SDS011;6427;49.754;6.106;2023-06-14T02:34:27;11.43;;;6.70;;
12725;SDS011;6427;49.754;6.106;2023-06-14T02:36:55;8.77;;;7.33;;
12725;SDS011;6427;49.754;6.106;2023-06-14T02:39:23;8.47;;;6.90;;
12725;SDS011;6427;49.754;6.106;2023-06-14T02:41:51;9.13;;;7.27;;
12725;SDS011;6427;49.754;6.106;2023-06-14T02:44:19;9.40;;;6.97;;
12725;SDS011;6427;49.754;6.106;2023-06-14T02:46:47;9.57;;;7.55;;
12725;SDS011;6427;49.754;6.106;2023-06-14T02:49:14;10.20;;;6.90;;
12725;SDS011;6427;49.754;6.106;2023-06-14T02:51:42;8.23;;;6.87;;
12725;SDS011;6427;49.754;6.106;2023-06-14T02:54:09;9.48;;;7.90;;
12725;SDS011;6427;49.754;6.106;2023-06-14T02:56:37;9.00;;;7.27;;
12725;SDS011;6427;49.754;6.106;2023-06-14T02:59:05;9.97;;;7.60;;
12725;SDS011;6427;49.754;6.106;2023-06-14T03:01:32;10.83;;;7.43;;
12725;SDS011;6427;49.754;6.106;2023-06-14T03:04:03;9.53;;;7.20;;
12725;SDS011;6427;49.754;6.106;2023-06-14T03:06:30;12.30;;;8.23;;
12725;SDS011;6427;49.754;6.106;2023-06-14T03:08:59;8.70;;;7.20;;
12725;SDS011;6427;49.754;6.106;2023-06-14T03:11:26;9.37;;;7.67;;
12725;SDS011;6427;49.754;6.106;2023-06-14T03:13:54;9.97;;;7.60;;
12725;SDS011;6427;49.754;6.106;2023-06-14T03:16:21;8.63;;;7.40;;
12725;SDS011;6427;49.754;6.106;2023-06-14T03:18:52;9.80;;;7.00;;
12725;SDS011;6427;49.754;6.106;2023-06-14T03:21:19;10.23;;;7.53;;
12725;SDS011;6427;49.754;6.106;2023-06-14T03:23:47;10.52;;;8.48;;
12725;SDS011;6427;49.754;6.106;2023-06-14T03:26:15;11.40;;;7.27;;
12725;SDS011;6427;49.754;6.106;2023-06-14T03:28:42;12.13;;;7.30;;
12725;SDS011;6427;49.754;6.106;2023-06-14T03:31:10;10.32;;;8.18;;
12725;SDS011;6427;49.754;6.106;2023-06-14T03:33:37;8.27;;;7.47;;
12725;SDS011;6427;49.754;6.106;2023-06-14T03:36:05;8.37;;;6.77;;
12725;SDS011;6427;49.754;6.106;2023-06-14T03:38:32;11.32;;;8.30;;
12725;SDS011;6427;49.754;6.106;2023-06-14T03:41:00;10.10;;;7.70;;
12725;SDS011;6427;49.754;6.106;2023-06-14T03:43:28;9.40;;;7.53;;
12725;SDS011;6427;49.754;6.106;2023-06-14T03:45:56;9.73;;;7.43;;
12725;SDS011;6427;49.754;6.106;2023-06-14T03:48:24;10.43;;;7.60;;
12725;SDS011;6427;49.754;6.106;2023-06-14T03:50:51;9.57;;;7.03;;
12725;SDS011;6427;49.754;6.106;2023-06-14T03:53:19;8.37;;;7.30;;
12725;SDS011;6427;49.754;6.106;2023-06-14T03:55:46;11.60;;;7.63;;
12725;SDS011;6427;49.754;6.106;2023-06-14T03:58:15;11.20;;;7.85;;
12725;SDS011;6427;49.754;6.106;2023-06-14T04:00:42;8.57;;;7.13;;
12725;SDS011;6427;49.754;6.106;2023-06-14T04:03:10;10.83;;;7.00;;
12725;SDS011;6427;49.754;6.106;2023-06-14T04:05:38;10.07;;;7.10;;
12725;SDS011;6427;49.754;6.106;2023-06-14T04:08:05;12.20;;;7.37;;
12725;SDS011;6427;49.754;6.106;2023-06-14T04:10:33;12.07;;;7.23;;
12725;SDS011;6427;49.754;6.106;2023-06-14T04:13:01;14.23;;;8.23;;
12725;SDS011;6427;49.754;6.106;2023-06-14T04:15:29;20.67;;;7.97;;
12725;SDS011;6427;49.754;6.106;2023-06-14T04:17:56;10.13;;;8.27;;
12725;SDS011;6427;49.754;6.106;2023-06-14T04:20:24;14.13;;;7.77;;
12725;SDS011;6427;49.754;6.106;2023-06-14T04:22:52;14.10;;;8.40;;
12725;SDS011;6427;49.754;6.106;2023-06-14T04:25:20;13.50;;;8.20;;
12725;SDS011;6427;49.754;6.106;2023-06-14T04:27:47;10.60;;;6.97;;
12725;SDS011;6427;49.754;6.106;2023-06-14T04:30:15;10.38;;;8.23;;
12725;SDS011;6427;49.754;6.106;2023-06-14T04:32:43;9.17;;;7.47;;
12725;SDS011;6427;49.754;6.106;2023-06-14T04:35:11;14.00;;;8.80;;
12725;SDS011;6427;49.754;6.106;2023-06-14T04:37:39;10.70;;;7.43;;
12725;SDS011;6427;49.754;6.106;2023-06-14T04:40:06;10.20;;;8.10;;
12725;SDS011;6427;49.754;6.106;2023-06-14T04:42:34;11.53;;;7.70;;
12725;SDS011;6427;49.754;6.106;2023-06-14T04:45:02;12.67;;;7.80;;
12725;SDS011;6427;49.754;6.106;2023-06-14T04:47:30;10.93;;;7.30;;
12725;SDS011;6427;49.754;6.106;2023-06-14T04:49:58;9.00;;;7.40;;
12725;SDS011;6427;49.754;6.106;2023-06-14T04:52:26;11.37;;;7.30;;
12725;SDS011;6427;49.754;6.106;2023-06-14T04:54:54;10.23;;;7.47;;
12725;SDS011;6427;49.754;6.106;2023-06-14T04:57:22;11.87;;;7.43;;
12725;SDS011;6427;49.754;6.106;2023-06-14T04:59:50;11.15;;;7.53;;
12725;SDS011;6427;49.754;6.106;2023-06-14T05:02:18;12.73;;;7.67;;
12725;SDS011;6427;49.754;6.106;2023-06-14T05:04:46;12.57;;;8.27;;
12725;SDS011;6427;49.754;6.106;2023-06-14T05:07:13;16.57;;;7.87;;
12725;SDS011;6427;49.754;6.106;2023-06-14T05:09:42;9.37;;;7.17;;
12725;SDS011;6427;49.754;6.106;2023-06-14T05:12:09;9.83;;;7.60;;
12725;SDS011;6427;49.754;6.106;2023-06-14T05:14:37;10.23;;;8.43;;
12725;SDS011;6427;49.754;6.106;2023-06-14T05:17:04;10.30;;;7.90;;
12725;SDS011;6427;49.754;6.106;2023-06-14T05:19:32;11.80;;;7.53;;
12725;SDS011;6427;49.754;6.106;2023-06-14T05:22:00;8.50;;;7.30;;
12725;SDS011;6427;49.754;6.106;2023-06-14T05:24:27;9.97;;;7.33;;
12725;SDS011;6427;49.754;6.106;2023-06-14T05:26:56;13.50;;;7.23;;
12725;SDS011;6427;49.754;6.106;2023-06-14T05:29:23;11.10;;;7.30;;
12725;SDS011;6427;49.754;6.106;2023-06-14T05:31:51;8.03;;;6.93;;
12725;SDS011;6427;49.754;6.106;2023-06-14T05:34:18;9.03;;;6.80;;
12725;SDS011;6427;49.754;6.106;2023-06-14T05:36:46;9.67;;;7.90;;
12725;SDS011;6427;49.754;6.106;2023-06-14T05:39:14;9.70;;;7.28;;
12725;SDS011;6427;49.754;6.106;2023-06-14T05:41:41;11.93;;;7.33;;
12725;SDS011;6427;49.754;6.106;2023-06-14T05:44:09;13.27;;;7.33;;
12725;SDS011;6427;49.754;6.106;2023-06-14T05:46:36;9.97;;;7.23;;
12725;SDS011;6427;49.754;6.106;2023-06-14T05:49:04;8.77;;;7.33;;
12725;SDS011;6427;49.754;6.106;2023-06-14T05:51:31;13.50;;;7.00;;
12725;SDS011;6427;49.754;6.106;2023-06-14T05:53:59;8.98;;;7.30;;
12725;SDS011;6427;49.754;6.106;2023-06-14T05:56:27;9.27;;;7.80;;
12725;SDS011;6427;49.754;6.106;2023-06-14T05:58:55;11.97;;;7.90;;
12725;SDS011;6427;49.754;6.106;2023-06-14T06:01:23;9.95;;;7.20;;
12725;SDS011;6427;49.754;6.106;2023-06-14T06:03:50;11.13;;;6.97;;
12725;SDS011;6427;49.754;6.106;2023-06-14T06:06:18;11.53;;;7.17;;
12725;SDS011;6427;49.754;6.106;2023-06-14T06:08:45;12.00;;;7.47;;
12725;SDS011;6427;49.754;6.106;2023-06-14T06:11:13;14.33;;;7.00;;
12725;SDS011;6427;49.754;6.106;2023-06-14T06:13:41;11.77;;;7.03;;
12725;SDS011;6427;49.754;6.106;2023-06-14T06:16:08;8.50;;;6.27;;
12725;SDS011;6427;49.754;6.106;2023-06-14T06:18:36;7.03;;;5.40;;
12725;SDS011;6427;49.754;6.106;2023-06-14T06:21:04;14.30;;;6.40;;
12725;SDS011;6427;49.754;6.106;2023-06-14T06:23:32;8.67;;;5.53;;
12725;SDS011;6427;49.754;6.106;2023-06-14T06:25:59;8.93;;;5.80;;
12725;SDS011;6427;49.754;6.106;2023-06-14T06:28:27;9.45;;;6.43;;
12725;SDS011;6427;49.754;6.106;2023-06-14T06:30:55;13.43;;;5.80;;
12725;SDS011;6427;49.754;6.106;2023-06-14T06:33:22;7.13;;;6.10;;
12725;SDS011;6427;49.754;6.106;2023-06-14T06:35:50;6.87;;;5.40;;
12725;SDS011;6427;49.754;6.106;2023-06-14T06:38:19;6.10;;;5.30;;
12725;SDS011;6427;49.754;6.106;2023-06-14T06:40:46;8.33;;;5.70;;
12725;SDS011;6427;49.754;6.106;2023-06-14T06:43:14;7.33;;;5.10;;
12725;SDS011;6427;49.754;6.106;2023-06-14T06:45:42;6.50;;;5.78;;
12725;SDS011;6427;49.754;6.106;2023-06-14T06:48:09;8.67;;;5.23;;
12725;SDS011;6427;49.754;6.106;2023-06-14T06:50:37;7.53;;;5.43;;
12725;SDS011;6427;49.754;6.106;2023-06-14T06:53:04;5.37;;;4.83;;
12725;SDS011;6427;49.754;6.106;2023-06-14T06:55:32;8.60;;;5.47;;
12725;SDS011;6427;49.754;6.106;2023-06-14T06:58:00;8.20;;;5.23;;
12725;SDS011;6427;49.754;6.106;2023-06-14T07:00:27;7.20;;;5.60;;
12725;SDS011;6427;49.754;6.106;2023-06-14T07:02:55;9.80;;;6.20;;
12725;SDS011;6427;49.754;6.106;2023-06-14T07:05:23;7.27;;;4.83;;
12725;SDS011;6427;49.754;6.106;2023-06-14T07:07:50;8.48;;;5.53;;
12725;SDS011;6427;49.754;6.106;2023-06-14T07:10:18;6.83;;;5.40;;
12725;SDS011;6427;49.754;6.106;2023-06-14T07:12:45;10.57;;;5.20;;
12725;SDS011;6427;49.754;6.106;2023-06-14T07:15:14;5.63;;;4.50;;
12725;SDS011;6427;49.754;6.106;2023-06-14T07:17:41;5.40;;;4.80;;
12725;SDS011;6427;49.754;6.106;2023-06-14T07:20:09;7.23;;;4.73;;
12725;SDS011;6427;49.754;6.106;2023-06-14T07:22:37;9.47;;;4.43;;
12725;SDS011;6427;49.754;6.106;2023-06-14T07:25:10;5.97;;;4.83;;
12725;SDS011;6427;49.754;6.106;2023-06-14T07:27:34;7.20;;;4.43;;
12725;SDS011;6427;49.754;6.106;2023-06-14T07:30:02;11.17;;;4.10;;
12725;SDS011;6427;49.754;6.106;2023-06-14T07:32:29;8.47;;;4.50;;
12725;SDS011;6427;49.754;6.106;2023-06-14T07:34:57;6.75;;;4.90;;
12725;SDS011;6427;49.754;6.106;2023-06-14T07:37:25;6.33;;;4.47;;
12725;SDS011;6427;49.754;6.106;2023-06-14T07:39:52;7.17;;;5.03;;
12725;SDS011;6427;49.754;6.106;2023-06-14T07:42:20;7.87;;;4.70;;
12725;SDS011;6427;49.754;6.106;2023-06-14T07:44:47;7.27;;;4.47;;
12725;SDS011;6427;49.754;6.106;2023-06-14T07:47:15;10.30;;;4.47;;
12725;SDS011;6427;49.754;6.106;2023-06-14T07:49:42;10.83;;;4.50;;
12725;SDS011;6427;49.754;6.106;2023-06-14T07:52:10;5.33;;;4.23;;
12725;SDS011;6427;49.754;6.106;2023-06-14T07:54:38;6.87;;;4.60;;
12725;SDS011;6427;49.754;6.106;2023-06-14T07:57:05;4.83;;;4.37;;
12725;SDS011;6427;49.754;6.106;2023-06-14T07:59:33;5.50;;;4.30;;
12725;SDS011;6427;49.754;6.106;2023-06-14T08:02:00;6.97;;;4.30;;
12725;SDS011;6427;49.754;6.106;2023-06-14T08:04:28;8.30;;;4.87;;
12725;SDS011;6427;49.754;6.106;2023-06-14T08:06:56;8.67;;;4.70;;
12725;SDS011;6427;49.754;6.106;2023-06-14T08:09:23;7.23;;;4.47;;
12725;SDS011;6427;49.754;6.106;2023-06-14T08:11:51;6.87;;;4.63;;
12725;SDS011;6427;49.754;6.106;2023-06-14T08:14:18;19.57;;;5.87;;
12725;SDS011;6427;49.754;6.106;2023-06-14T08:16:46;7.60;;;4.43;;
12725;SDS011;6427;49.754;6.106;2023-06-14T08:19:14;7.10;;;4.30;;
12725;SDS011;6427;49.754;6.106;2023-06-14T08:21:41;7.00;;;4.90;;
12725;SDS011;6427;49.754;6.106;2023-06-14T08:24:12;8.13;;;4.70;;
12725;SDS011;6427;49.754;6.106;2023-06-14T08:26:41;8.13;;;4.27;;
12725;SDS011;6427;49.754;6.106;2023-06-14T08:29:08;8.57;;;4.33;;
12725;SDS011;6427;49.754;6.106;2023-06-14T08:31:36;4.80;;;3.97;;
12725;SDS011;6427;49.754;6.106;2023-06-14T08:34:03;8.53;;;4.50;;
12725;SDS011;6427;49.754;6.106;2023-06-14T08:36:32;6.40;;;4.20;;
12725;SDS011;6427;49.754;6.106;2023-06-14T08:38:59;7.27;;;4.73;;
12725;SDS011;6427;49.754;6.106;2023-06-14T08:41:27;9.15;;;4.68;;
12725;SDS011;6427;49.754;6.106;2023-06-14T08:43:55;7.37;;;4.10;;
12725;SDS011;6427;49.754;6.106;2023-06-14T08:46:22;6.37;;;4.10;;
12725;SDS011;6427;49.754;6.106;2023-06-14T08:48:50;7.00;;;4.10;;
12725;SDS011;6427;49.754;6.106;2023-06-14T08:51:20;6.20;;;4.32;;
12725;SDS011;6427;49.754;6.106;2023-06-14T08:53:52;4.73;;;4.27;;
12725;SDS011;6427;49.754;6.106;2023-06-14T08:56:18;5.33;;;4.57;;
12725;SDS011;6427;49.754;6.106;2023-06-14T08:58:46;11.17;;;4.07;;
12725;SDS011;6427;49.754;6.106;2023-06-14T09:01:13;9.47;;;3.93;;
12725;SDS011;6427;49.754;6.106;2023-06-14T09:03:42;6.07;;;4.53;;
12725;SDS011;6427;49.754;6.106;2023-06-14T09:06:09;5.60;;;4.00;;
12725;SDS011;6427;49.754;6.106;2023-06-14T09:08:37;5.57;;;4.67;;
12725;SDS011;6427;49.754;6.106;2023-06-14T09:11:04;7.50;;;4.27;;
12725;SDS011;6427;49.754;6.106;2023-06-14T09:13:33;9.13;;;4.70;;
12725;SDS011;6427;49.754;6.106;2023-06-14T09:16:00;12.87;;;4.20;;
12725;SDS011;6427;49.754;6.106;2023-06-14T09:18:39;9.80;;;4.73;;
12725;SDS011;6427;49.754;6.106;2023-06-14T09:21:06;8.53;;;4.20;;
12725;SDS011;6427;49.754;6.106;2023-06-14T09:23:39;9.02;;;4.50;;
12725;SDS011;6427;49.754;6.106;2023-06-14T09:26:10;6.20;;;4.60;;
12725;SDS011;6427;49.754;6.106;2023-06-14T09:28:47;8.00;;;4.33;;
12725;SDS011;6427;49.754;6.106;2023-06-14T09:31:17;7.40;;;4.72;;
12725;SDS011;6427;49.754;6.106;2023-06-14T09:33:42;6.43;;;4.20;;
12725;SDS011;6427;49.754;6.106;2023-06-14T09:36:10;10.67;;;4.90;;
12725;SDS011;6427;49.754;6.106;2023-06-14T09:38:39;8.37;;;4.97;;
12725;SDS011;6427;49.754;6.106;2023-06-14T09:41:05;6.13;;;4.17;;
12725;SDS011;6427;49.754;6.106;2023-06-14T09:43:32;7.00;;;4.30;;
12725;SDS011;6427;49.754;6.106;2023-06-14T09:46:00;8.43;;;4.53;;
12725;SDS011;6427;49.754;6.106;2023-06-14T09:48:31;6.47;;;4.20;;
12725;SDS011;6427;49.754;6.106;2023-06-14T09:51:00;5.40;;;4.20;;
12725;SDS011;6427;49.754;6.106;2023-06-14T09:53:29;6.60;;;4.40;;
12725;SDS011;6427;49.754;6.106;2023-06-14T09:55:55;8.80;;;4.30;;
12725;SDS011;6427;49.754;6.106;2023-06-14T09:58:23;8.13;;;5.00;;
12725;SDS011;6427;49.754;6.106;2023-06-14T10:00:50;5.67;;;4.20;;
12725;SDS011;6427;49.754;6.106;2023-06-14T10:03:20;11.77;;;4.60;;
12725;SDS011;6427;49.754;6.106;2023-06-14T10:05:45;9.23;;;4.20;;
12725;SDS011;6427;49.754;6.106;2023-06-14T10:08:16;5.17;;;4.07;;
12725;SDS011;6427;49.754;6.106;2023-06-14T10:10:43;5.10;;;3.70;;
12725;SDS011;6427;49.754;6.106;2023-06-14T10:13:11;6.13;;;3.77;;
12725;SDS011;6427;49.754;6.106;2023-06-14T10:15:41;6.67;;;4.00;;
12725;SDS011;6427;49.754;6.106;2023-06-14T10:21:13;6.87;;;3.93;;
12725;SDS011;6427;49.754;6.106;2023-06-14T10:23:56;8.73;;;4.47;;
12725;SDS011;6427;49.754;6.106;2023-06-14T10:26:24;10.83;;;4.40;;
12725;SDS011;6427;49.754;6.106;2023-06-14T10:29:07;7.07;;;3.93;;
12725;SDS011;6427;49.754;6.106;2023-06-14T10:31:44;4.63;;;3.90;;
12725;SDS011;6427;49.754;6.106;2023-06-14T10:34:12;4.33;;;3.73;;
12725;SDS011;6427;49.754;6.106;2023-06-14T10:36:42;9.23;;;4.03;;
12725;SDS011;6427;49.754;6.106;2023-06-14T10:41:53;7.00;;;3.80;;
12725;SDS011;6427;49.754;6.106;2023-06-14T10:46:49;6.00;;;3.80;;
12725;SDS011;6427;49.754;6.106;2023-06-14T10:49:17;9.10;;;4.47;;
12725;SDS011;6427;49.754;6.106;2023-06-14T10:51:50;4.67;;;4.00;;
12725;SDS011;6427;49.754;6.106;2023-06-14T10:54:21;6.10;;;4.40;;
12725;SDS011;6427;49.754;6.106;2023-06-14T10:56:49;5.70;;;4.10;;
12725;SDS011;6427;49.754;6.106;2023-06-14T10:59:19;6.27;;;4.20;;
12725;SDS011;6427;49.754;6.106;2023-06-14T11:04:28;7.17;;;4.30;;
12725;SDS011;6427;49.754;6.106;2023-06-14T11:06:51;6.72;;;4.32;;
12725;SDS011;6427;49.754;6.106;2023-06-14T11:09:24;7.37;;;4.00;;
12725;SDS011;6427;49.754;6.106;2023-06-14T11:11:48;8.32;;;4.40;;
12725;SDS011;6427;49.754;6.106;2023-06-14T11:14:16;5.33;;;4.27;;
12725;SDS011;6427;49.754;6.106;2023-06-14T11:16:47;5.80;;;3.83;;
12725;SDS011;6427;49.754;6.106;2023-06-14T11:19:12;5.87;;;4.13;;
12725;SDS011;6427;49.754;6.106;2023-06-14T11:21:40;4.20;;;3.80;;
12725;SDS011;6427;49.754;6.106;2023-06-14T11:24:10;4.50;;;3.87;;
12725;SDS011;6427;49.754;6.106;2023-06-14T11:26:39;7.25;;;4.53;;
12725;SDS011;6427;49.754;6.106;2023-06-14T11:29:07;4.70;;;4.07;;
12725;SDS011;6427;49.754;6.106;2023-06-14T11:31:34;8.40;;;5.23;;
12725;SDS011;6427;49.754;6.106;2023-06-14T11:34:02;7.87;;;4.00;;
12725;SDS011;6427;49.754;6.106;2023-06-14T11:36:30;7.30;;;3.97;;
12725;SDS011;6427;49.754;6.106;2023-06-14T11:39:00;7.47;;;4.20;;
12725;SDS011;6427;49.754;6.106;2023-06-14T11:41:32;6.30;;;4.20;;
12725;SDS011;6427;49.754;6.106;2023-06-14T11:43:55;9.30;;;4.17;;
12725;SDS011;6427;49.754;6.106;2023-06-14T11:46:22;7.60;;;4.27;;
12725;SDS011;6427;49.754;6.106;2023-06-14T11:48:50;5.25;;;3.95;;
12725;SDS011;6427;49.754;6.106;2023-06-14T11:51:18;8.17;;;4.20;;
12725;SDS011;6427;49.754;6.106;2023-06-14T11:53:45;7.27;;;4.20;;
12725;SDS011;6427;49.754;6.106;2023-06-14T11:56:13;6.47;;;4.37;;
12725;SDS011;6427;49.754;6.106;2023-06-14T11:58:44;7.07;;;4.10;;
12725;SDS011;6427;49.754;6.106;2023-06-14T12:01:16;8.23;;;4.30;;
12725;SDS011;6427;49.754;6.106;2023-06-14T12:03:47;6.80;;;4.17;;
12725;SDS011;6427;49.754;6.106;2023-06-14T12:06:25;8.50;;;3.93;;
12725;SDS011;6427;49.754;6.106;2023-06-14T12:08:45;8.00;;;3.67;;
12725;SDS011;6427;49.754;6.106;2023-06-14T12:11:13;6.03;;;3.60;;
12725;SDS011;6427;49.754;6.106;2023-06-14T12:13:41;6.07;;;3.67;;
12725;SDS011;6427;49.754;6.106;2023-06-14T12:16:09;6.33;;;4.00;;
12725;SDS011;6427;49.754;6.106;2023-06-14T12:18:37;5.53;;;3.47;;
12725;SDS011;6427;49.754;6.106;2023-06-14T12:21:05;7.07;;;3.70;;
12725;SDS011;6427;49.754;6.106;2023-06-14T12:23:41;7.30;;;3.47;;
12725;SDS011;6427;49.754;6.106;2023-06-14T12:26:15;9.13;;;3.80;;
12725;SDS011;6427;49.754;6.106;2023-06-14T12:28:47;6.67;;;3.80;;
12725;SDS011;6427;49.754;6.106;2023-06-14T12:31:15;7.93;;;3.70;;
12725;SDS011;6427;49.754;6.106;2023-06-14T12:33:42;5.47;;;3.70;;
12725;SDS011;6427;49.754;6.106;2023-06-14T12:36:10;5.03;;;3.03;;
12725;SDS011;6427;49.754;6.106;2023-06-14T12:38:37;7.50;;;3.23;;
12725;SDS011;6427;49.754;6.106;2023-06-14T12:41:05;4.50;;;4.10;;
12725;SDS011;6427;49.754;6.106;2023-06-14T12:43:33;11.13;;;3.40;;
12725;SDS011;6427;49.754;6.106;2023-06-14T12:46:00;5.43;;;3.40;;
12725;SDS011;6427;49.754;6.106;2023-06-14T12:48:28;7.30;;;3.73;;
12725;SDS011;6427;49.754;6.106;2023-06-14T12:50:55;4.50;;;3.47;;
12725;SDS011;6427;49.754;6.106;2023-06-14T12:53:24;4.47;;;3.40;;
12725;SDS011;6427;49.754;6.106;2023-06-14T12:55:52;4.07;;;3.30;;
12725;SDS011;6427;49.754;6.106;2023-06-14T12:58:20;5.43;;;3.90;;
12725;SDS011;6427;49.754;6.106;2023-06-14T13:00:47;6.37;;;3.55;;
12725;SDS011;6427;49.754;6.106;2023-06-14T13:03:15;5.87;;;3.27;;
12725;SDS011;6427;49.754;6.106;2023-06-14T13:05:42;5.63;;;3.57;;
12725;SDS011;6427;49.754;6.106;2023-06-14T13:08:10;7.10;;;3.10;;
12725;SDS011;6427;49.754;6.106;2023-06-14T13:10:38;5.32;;;3.62;;
12725;SDS011;6427;49.754;6.106;2023-06-14T13:13:05;10.07;;;3.67;;
12725;SDS011;6427;49.754;6.106;2023-06-14T13:15:33;5.65;;;3.33;;
12725;SDS011;6427;49.754;6.106;2023-06-14T13:18:00;5.68;;;3.45;;
12725;SDS011;6427;49.754;6.106;2023-06-14T13:20:28;4.53;;;3.70;;
12725;SDS011;6427;49.754;6.106;2023-06-14T13:22:56;5.63;;;3.50;;
12725;SDS011;6427;49.754;6.106;2023-06-14T13:25:23;6.62;;;3.80;;
12725;SDS011;6427;49.754;6.106;2023-06-14T13:27:51;8.97;;;3.93;;
12725;SDS011;6427;49.754;6.106;2023-06-14T13:30:18;5.75;;;3.50;;
12725;SDS011;6427;49.754;6.106;2023-06-14T13:32:46;5.20;;;3.27;;
12725;SDS011;6427;49.754;6.106;2023-06-14T13:35:14;6.50;;;3.73;;
12725;SDS011;6427;49.754;6.106;2023-06-14T13:37:41;7.90;;;3.60;;
12725;SDS011;6427;49.754;6.106;2023-06-14T13:40:09;7.40;;;4.00;;
12725;SDS011;6427;49.754;6.106;2023-06-14T13:42:36;6.43;;;3.53;;
12725;SDS011;6427;49.754;6.106;2023-06-14T13:45:04;5.20;;;3.47;;
12725;SDS011;6427;49.754;6.106;2023-06-14T13:47:32;4.27;;;3.43;;
12725;SDS011;6427;49.754;6.106;2023-06-14T13:49:59;5.33;;;3.77;;
12725;SDS011;6427;49.754;6.106;2023-06-14T13:52:28;7.15;;;3.45;;
12725;SDS011;6427;49.754;6.106;2023-06-14T13:54:56;7.43;;;3.27;;
12725;SDS011;6427;49.754;6.106;2023-06-14T13:57:24;3.90;;;3.00;;
12725;SDS011;6427;49.754;6.106;2023-06-14T13:59:52;4.75;;;3.45;;
12725;SDS011;6427;49.754;6.106;2023-06-14T14:02:20;6.13;;;3.30;;
12725;SDS011;6427;49.754;6.106;2023-06-14T14:04:48;7.70;;;3.20;;
12725;SDS011;6427;49.754;6.106;2023-06-14T14:07:16;10.47;;;3.47;;
12725;SDS011;6427;49.754;6.106;2023-06-14T14:09:43;7.47;;;3.10;;
12725;SDS011;6427;49.754;6.106;2023-06-14T14:12:12;5.67;;;3.77;;
12725;SDS011;6427;49.754;6.106;2023-06-14T14:14:39;4.57;;;3.07;;
12725;SDS011;6427;49.754;6.106;2023-06-14T14:17:07;7.60;;;2.80;;
12725;SDS011;6427;49.754;6.106;2023-06-14T14:19:34;6.00;;;3.10;;
12725;SDS011;6427;49.754;6.106;2023-06-14T14:22:02;6.68;;;3.12;;
12725;SDS011;6427;49.754;6.106;2023-06-14T14:24:30;6.07;;;3.35;;
12725;SDS011;6427;49.754;6.106;2023-06-14T14:26:58;19.23;;;3.17;;
12725;SDS011;6427;49.754;6.106;2023-06-14T14:29:26;2.80;;;2.60;;
12725;SDS011;6427;49.754;6.106;2023-06-14T14:31:53;4.30;;;3.00;;
12725;SDS011;6427;49.754;6.106;2023-06-14T14:34:21;5.33;;;2.83;;
12725;SDS011;6427;49.754;6.106;2023-06-14T14:36:48;9.10;;;3.33;;
12725;SDS011;6427;49.754;6.106;2023-06-14T14:39:16;5.87;;;2.80;;
12725;SDS011;6427;49.754;6.106;2023-06-14T14:41:43;6.07;;;2.90;;
12725;SDS011;6427;49.754;6.106;2023-06-14T14:44:11;5.97;;;2.90;;
12725;SDS011;6427;49.754;6.106;2023-06-14T14:46:39;4.13;;;2.77;;
12725;SDS011;6427;49.754;6.106;2023-06-14T14:49:06;3.13;;;2.77;;
12725;SDS011;6427;49.754;6.106;2023-06-14T14:51:34;9.03;;;2.90;;
12725;SDS011;6427;49.754;6.106;2023-06-14T14:54:01;5.17;;;2.57;;
12725;SDS011;6427;49.754;6.106;2023-06-14T14:56:29;7.77;;;2.60;;
12725;SDS011;6427;49.754;6.106;2023-06-14T14:58:57;3.33;;;2.33;;
12725;SDS011;6427;49.754;6.106;2023-06-14T15:01:24;7.03;;;2.83;;
12725;SDS011;6427;49.754;6.106;2023-06-14T15:03:52;3.53;;;2.33;;
12725;SDS011;6427;49.754;6.106;2023-06-14T15:06:19;3.27;;;2.40;;
12725;SDS011;6427;49.754;6.106;2023-06-14T15:08:47;6.20;;;2.90;;
12725;SDS011;6427;49.754;6.106;2023-06-14T15:11:15;4.97;;;2.40;;
12725;SDS011;6427;49.754;6.106;2023-06-14T15:13:43;6.70;;;2.57;;
12725;SDS011;6427;49.754;6.106;2023-06-14T15:16:10;4.67;;;2.60;;
12725;SDS011;6427;49.754;6.106;2023-06-14T15:18:38;3.80;;;2.73;;
12725;SDS011;6427;49.754;6.106;2023-06-14T15:21:07;2.70;;;2.33;;